createdAt,value
2023-02-11T00:00:05.712Z,7.15
2023-02-11T00:02:33.939Z,9.40
2023-02-11T00:05:03.526Z,10.05
2023-02-11T00:07:31.753Z,8.65
2023-02-11T00:09:59.684Z,8.77
2023-02-11T00:12:27.675Z,7.85
2023-02-11T00:14:55.921Z,10.13
2023-02-11T00:17:23.876Z,10.30
2023-02-11T00:19:52.016Z,9.13
2023-02-11T00:22:21.379Z,9.95
2023-02-11T00:24:49.439Z,7.97
2023-02-11T00:27:17.433Z,9.07
2023-02-11T00:29:45.938Z,8.80
2023-02-11T00:32:13.765Z,7.85
2023-02-11T00:34:41.710Z,10.45
2023-02-11T00:37:09.565Z,6.15
2023-02-11T00:39:38.953Z,11.85
2023-02-11T00:42:06.895Z,8.27
2023-02-11T00:44:34.807Z,8.30
2023-02-11T00:47:02.930Z,6.13
2023-02-11T00:49:30.759Z,6.88
2023-02-11T00:51:58.576Z,6.78
2023-02-11T00:54:28.427Z,8.25
2023-02-11T00:56:59.129Z,8.80
2023-02-11T00:59:27.053Z,8.40
2023-02-11T01:01:55.040Z,7.30
2023-02-11T01:04:22.953Z,7.95
2023-02-11T01:06:53.159Z,6.95
2023-02-11T01:09:21.858Z,6.05
2023-02-11T01:11:49.805Z,6.50
2023-02-11T01:14:19.161Z,7.72
2023-02-11T01:16:47.132Z,8.90
2023-02-11T01:19:15.044Z,6.38
2023-02-11T01:21:46.096Z,8.75
2023-02-11T01:24:14.047Z,6.32
2023-02-11T01:26:44.976Z,8.23
2023-02-11T01:29:12.884Z,8.43
2023-02-11T01:31:42.216Z,6.53
2023-02-11T01:34:10.133Z,8.98
2023-02-11T01:36:38.677Z,6.80
2023-02-11T01:39:06.644Z,9.50
2023-02-11T01:41:34.739Z,8.27
2023-02-11T01:44:24.178Z,7.47
2023-02-11T01:46:53.708Z,4.90
2023-02-11T01:49:24.803Z,6.47
2023-02-11T01:51:56.489Z,6.53
2023-02-11T01:54:45.232Z,9.50
2023-02-11T01:57:23.496Z,8.85
2023-02-11T02:00:02.998Z,8.15
2023-02-11T02:02:47.597Z,6.43
2023-02-11T02:05:24.205Z,10.27
2023-02-11T02:07:58.335Z,8.75
2023-02-11T02:10:28.422Z,8.65
2023-02-11T02:12:56.609Z,6.30
2023-02-11T02:15:27.484Z,8.75
2023-02-11T02:18:03.234Z,10.18
2023-02-11T02:20:55.151Z,7.30
2023-02-11T02:23:45.831Z,8.85
2023-02-11T02:26:29.422Z,10.27
2023-02-11T02:29:41.321Z,11.05
2023-02-11T02:32:33.096Z,5.72
2023-02-11T02:35:06.981Z,10.68
2023-02-11T02:37:38.913Z,7.40
2023-02-11T02:40:11.404Z,10.85
2023-02-11T02:42:39.942Z,10.77
2023-02-11T02:45:09.416Z,10.30
2023-02-11T02:47:38.947Z,7.30
2023-02-11T02:50:08.110Z,10.48
2023-02-11T02:52:37.880Z,9.77
2023-02-11T02:55:15.262Z,9.43
2023-02-11T02:57:55.623Z,9.52
2023-02-11T03:00:26.891Z,9.57
2023-02-11T03:03:07.337Z,8.68
2023-02-11T03:05:42.680Z,9.80
2023-02-11T03:08:13.952Z,10.07
2023-02-11T03:10:43.984Z,9.52
2023-02-11T03:13:12.229Z,10.38
2023-02-11T03:15:43.118Z,11.10
2023-02-11T03:18:15.343Z,7.90
2023-02-11T03:20:45.852Z,11.35
2023-02-11T03:23:16.431Z,9.35
2023-02-11T03:25:50.459Z,7.68
2023-02-11T03:28:26.108Z,10.93
2023-02-11T03:30:57.384Z,10.07
2023-02-11T03:33:29.493Z,6.97
2023-02-11T03:35:59.627Z,9.50
2023-02-11T03:38:31.082Z,9.75
2023-02-11T03:40:59.200Z,10.57
2023-02-11T03:43:30.200Z,10.65
2023-02-11T03:45:58.454Z,9.55
2023-02-11T03:48:31.334Z,10.75
2023-02-11T03:51:01.174Z,7.80
2023-02-11T03:53:29.105Z,15.27
2023-02-11T03:55:58.320Z,9.65
2023-02-11T03:58:26.143Z,11.15
2023-02-11T04:00:54.031Z,12.80
2023-02-11T04:03:21.939Z,9.30
2023-02-11T04:05:51.403Z,10.60
2023-02-11T04:08:19.514Z,11.55
2023-02-11T04:10:47.403Z,11.18
2023-02-11T04:13:15.390Z,12.80
2023-02-11T04:15:43.309Z,12.90
2023-02-11T04:18:11.203Z,12.07
2023-02-11T04:20:39.038Z,13.98
2023-02-11T04:23:08.281Z,13.90
2023-02-11T04:25:36.092Z,13.35
2023-02-11T04:28:03.984Z,10.27
2023-02-11T04:30:31.823Z,9.65
2023-02-11T04:32:59.932Z,11.77
2023-02-11T04:35:27.747Z,12.02
2023-02-11T04:37:55.632Z,11.00
2023-02-11T04:40:24.960Z,12.88
2023-02-11T04:42:52.843Z,7.47
2023-02-11T04:45:20.699Z,13.88
2023-02-11T04:47:48.544Z,11.50
2023-02-11T04:50:16.652Z,13.48
2023-02-11T04:52:44.537Z,12.68
2023-02-11T04:55:12.413Z,8.07
2023-02-11T04:57:41.634Z,12.27
2023-02-11T05:00:11.055Z,12.77
2023-02-11T05:02:38.981Z,13.25
2023-02-11T05:05:07.079Z,11.57
2023-02-11T05:07:35.017Z,11.48
2023-02-11T05:10:02.903Z,11.13
2023-02-11T05:12:30.754Z,12.10
2023-02-11T05:14:59.967Z,10.90
2023-02-11T05:17:27.833Z,12.95
2023-02-11T05:19:55.694Z,10.52
2023-02-11T05:22:23.588Z,11.48
2023-02-11T05:24:51.444Z,12.20
2023-02-11T05:27:19.285Z,10.40
2023-02-11T05:29:47.227Z,11.90
2023-02-11T05:32:16.455Z,9.88
2023-02-11T05:34:44.263Z,8.95
2023-02-11T05:37:12.219Z,7.65
2023-02-11T05:39:40.093Z,8.30
2023-02-11T05:42:08.242Z,8.93
2023-02-11T05:44:36.150Z,9.98
2023-02-11T05:47:04.277Z,7.35
2023-02-11T05:49:33.491Z,11.13
2023-02-11T05:52:01.394Z,7.55
2023-02-11T05:54:29.224Z,7.53
2023-02-11T05:56:57.080Z,7.38
2023-02-11T05:59:24.886Z,7.53
2023-02-11T06:01:52.830Z,11.25
2023-02-11T06:04:20.748Z,9.10
2023-02-11T06:06:49.972Z,8.60
2023-02-11T06:09:17.841Z,8.52
2023-02-11T06:11:45.659Z,9.00
2023-02-11T06:14:14.397Z,8.88
2023-02-11T06:16:42.259Z,7.60
2023-02-11T06:19:10.153Z,9.20
2023-02-11T06:21:43.833Z,10.77
2023-02-11T06:24:13.816Z,9.65
2023-02-11T06:26:41.614Z,9.95
2023-02-11T06:29:09.546Z,9.50
2023-02-11T06:31:38.724Z,8.30
2023-02-11T06:34:06.866Z,9.18
2023-02-11T06:36:34.789Z,8.98
2023-02-11T06:39:02.617Z,8.00
2023-02-11T06:41:31.966Z,8.07
2023-02-11T06:43:59.899Z,10.27
2023-02-11T06:46:27.807Z,9.98
2023-02-11T06:48:55.758Z,8.18
2023-02-11T06:51:24.068Z,10.23
2023-02-11T06:53:51.994Z,9.60
2023-02-11T06:56:21.929Z,7.28
2023-02-11T06:58:53.460Z,8.20
2023-02-11T07:01:21.507Z,8.07
2023-02-11T07:03:49.486Z,8.15
2023-02-11T07:06:18.922Z,8.50
2023-02-11T07:08:47.506Z,7.70
2023-02-11T07:11:17.042Z,7.63
2023-02-11T07:13:45.090Z,6.55
2023-02-11T07:16:16.169Z,5.65
2023-02-11T07:18:44.604Z,7.63
2023-02-11T07:21:13.847Z,7.57
2023-02-11T07:23:42.063Z,7.93
2023-02-11T07:26:11.187Z,6.90
2023-02-11T07:28:40.558Z,7.88
2023-02-11T07:31:09.113Z,7.07
2023-02-11T07:33:38.758Z,7.38
2023-02-11T07:36:08.520Z,5.93
2023-02-11T07:38:36.948Z,7.43
2023-02-11T07:41:06.357Z,7.53
2023-02-11T07:43:34.852Z,6.25
2023-02-11T07:46:04.696Z,6.47
2023-02-11T07:48:32.634Z,6.60
2023-02-11T07:51:08.460Z,5.00
2023-02-11T07:53:36.367Z,5.57
2023-02-11T07:56:04.809Z,5.80
2023-02-11T07:58:32.692Z,5.57
2023-02-11T08:01:03.389Z,6.32
2023-02-11T08:03:31.502Z,5.65
2023-02-11T08:05:59.787Z,5.70
2023-02-11T08:08:29.107Z,5.65
2023-02-11T08:10:57.025Z,6.32
2023-02-11T08:13:27.000Z,5.93
2023-02-11T08:15:54.927Z,3.88
2023-02-11T08:18:22.817Z,5.93
2023-02-11T08:20:50.957Z,6.38
2023-02-11T08:23:19.126Z,6.28
2023-02-11T08:25:48.668Z,5.25
2023-02-11T08:30:15.585Z,4.47
2023-02-11T08:32:43.527Z,5.60
2023-02-11T08:35:12.535Z,5.90
2023-02-11T08:37:40.726Z,4.90
2023-02-11T08:40:47.132Z,5.97
2023-02-11T08:43:15.475Z,5.13
2023-02-11T08:45:43.465Z,4.80
2023-02-11T08:48:11.381Z,5.03
2023-02-11T08:50:40.205Z,4.38
2023-02-11T08:53:08.280Z,4.22
2023-02-11T08:55:36.173Z,3.63
2023-02-11T08:58:05.555Z,4.40
2023-02-11T09:00:33.472Z,5.10
2023-02-11T09:03:02.161Z,4.70
2023-02-11T09:05:29.971Z,4.10
2023-02-11T09:07:57.840Z,3.78
2023-02-11T09:10:25.709Z,4.40
2023-02-11T09:12:53.595Z,4.70
2023-02-11T09:15:22.999Z,4.03
2023-02-11T09:17:50.956Z,3.75
2023-02-11T09:20:19.494Z,3.67
2023-02-11T09:22:47.507Z,4.05
2023-02-11T09:25:15.640Z,3.92
2023-02-11T09:27:43.598Z,4.63
2023-02-11T09:30:12.754Z,3.83
2023-02-11T09:32:42.066Z,4.47
2023-02-11T09:35:10.073Z,3.47
2023-02-11T09:37:38.148Z,4.60
2023-02-11T09:40:07.647Z,5.15
2023-02-11T09:42:46.881Z,3.30
2023-02-11T09:45:19.555Z,3.70
2023-02-11T09:47:51.780Z,3.83
2023-02-11T09:50:24.296Z,3.63
2023-02-11T09:52:59.952Z,3.03
2023-02-11T09:55:30.227Z,3.78
2023-02-11T09:57:58.960Z,3.55
2023-02-11T10:00:30.522Z,3.95
2023-02-11T10:03:36.871Z,3.80
2023-02-11T10:06:16.531Z,4.55
2023-02-11T10:08:50.796Z,4.15
2023-02-11T10:11:31.718Z,3.70
2023-02-11T10:14:11.650Z,3.83
2023-02-11T10:16:49.903Z,4.47
2023-02-11T10:19:32.267Z,4.85
2023-02-11T10:22:08.177Z,4.13
2023-02-11T10:24:36.624Z,3.35
2023-02-11T10:27:09.961Z,3.25
2023-02-11T10:29:41.269Z,3.17
2023-02-11T10:32:19.993Z,4.07
2023-02-11T10:34:49.321Z,3.25
2023-02-11T10:37:17.124Z,2.25
2023-02-11T10:39:45.077Z,2.22
2023-02-11T10:42:13.861Z,2.33
2023-02-11T10:44:45.253Z,2.95
2023-02-11T10:47:17.064Z,2.80
2023-02-11T10:49:47.022Z,3.03
2023-02-11T10:52:24.584Z,2.15
2023-02-11T10:55:01.344Z,2.90
2023-02-11T10:57:32.932Z,2.58
2023-02-11T11:00:03.284Z,2.13
2023-02-11T11:02:34.511Z,2.20
2023-02-11T11:05:05.614Z,2.38
2023-02-11T11:07:35.904Z,1.52
2023-02-11T11:10:08.502Z,2.30
2023-02-11T11:12:42.184Z,1.77
2023-02-11T11:15:22.571Z,1.70
2023-02-11T11:17:50.837Z,2.28
2023-02-11T11:20:25.208Z,1.55
2023-02-11T11:23:08.801Z,1.60
2023-02-11T11:25:39.342Z,2.00
2023-02-11T11:28:07.486Z,2.20
2023-02-11T11:30:42.513Z,1.50
2023-02-11T11:33:20.457Z,2.10
2023-02-11T11:35:58.781Z,3.00
2023-02-11T11:38:28.595Z,1.98
2023-02-11T11:41:27.007Z,1.25
2023-02-11T11:44:09.460Z,1.80
2023-02-11T11:46:40.322Z,1.60
2023-02-11T11:49:23.084Z,2.05
2023-02-11T11:51:56.415Z,1.35
2023-02-11T11:54:26.220Z,1.40
2023-02-11T11:56:59.073Z,2.33
2023-02-11T11:59:26.979Z,1.67
2023-02-11T12:02:18.884Z,2.28
2023-02-11T12:04:59.664Z,1.80
2023-02-11T12:07:35.798Z,1.17
2023-02-11T12:10:38.421Z,1.95
2023-02-11T12:13:18.570Z,1.67
2023-02-11T12:15:54.616Z,2.05
2023-02-11T12:18:47.915Z,1.45
2023-02-11T12:21:26.548Z,1.85
2023-02-11T12:24:09.216Z,1.60
2023-02-11T12:26:50.619Z,1.77
2023-02-11T12:29:29.173Z,1.75
2023-02-11T12:32:12.237Z,2.50
2023-02-11T12:34:54.355Z,2.03
2023-02-11T12:37:33.805Z,1.90
2023-02-11T12:40:05.556Z,1.63
2023-02-11T12:43:06.078Z,1.70
2023-02-11T12:45:49.934Z,2.35
2023-02-11T12:48:25.545Z,1.50
2023-02-11T12:50:59.351Z,2.45
2023-02-11T12:53:38.178Z,2.17
2023-02-11T12:56:07.708Z,1.00
2023-02-11T12:58:45.047Z,1.50
2023-02-11T13:01:20.837Z,1.48
2023-02-11T13:03:50.320Z,1.70
2023-02-11T13:06:21.691Z,1.58
2023-02-11T13:08:51.569Z,0.98
2023-02-11T13:11:21.611Z,1.98
2023-02-11T13:13:54.026Z,1.05
2023-02-11T13:16:32.547Z,1.67
2023-02-11T13:19:04.881Z,1.05
2023-02-11T13:21:39.694Z,1.80
2023-02-11T13:24:15.241Z,1.20
2023-02-11T13:26:48.451Z,1.38
2023-02-11T13:29:26.592Z,1.48
2023-02-11T13:31:56.015Z,1.88
2023-02-11T13:34:29.173Z,1.80
2023-02-11T13:39:25.873Z,1.08
2023-02-11T13:42:03.599Z,1.23
2023-02-11T13:44:35.274Z,1.17
2023-02-11T13:47:05.754Z,1.58
2023-02-11T13:49:40.721Z,0.90
2023-02-11T13:52:22.019Z,1.17
2023-02-11T13:54:51.919Z,0.93
2023-02-11T13:57:29.203Z,1.75
2023-02-11T14:00:00.361Z,1.20
2023-02-11T14:02:48.953Z,0.60
2023-02-11T14:05:51.114Z,1.02
2023-02-11T14:08:39.498Z,1.25
2023-02-11T14:11:14.769Z,1.63
2023-02-11T14:14:19.427Z,1.52
2023-02-11T14:17:19.884Z,1.40
2023-02-11T14:19:49.527Z,1.33
2023-02-11T14:22:19.776Z,1.30
2023-02-11T14:24:53.620Z,1.65
2023-02-11T14:27:51.469Z,1.33
2023-02-11T14:30:31.559Z,1.25
2023-02-11T14:33:20.646Z,0.90
2023-02-11T14:35:57.972Z,1.20
2023-02-11T14:38:34.094Z,1.27
2023-02-11T14:41:08.161Z,1.13
2023-02-11T14:43:37.528Z,0.88
2023-02-11T14:46:06.172Z,1.67
2023-02-11T14:48:36.398Z,1.17
2023-02-11T14:51:07.560Z,2.13
2023-02-11T14:53:36.208Z,1.08
2023-02-11T14:56:04.153Z,1.23
2023-02-11T14:58:32.914Z,1.35
2023-02-11T15:01:03.490Z,1.35
2023-02-11T15:03:35.951Z,1.38
2023-02-11T15:06:07.323Z,1.30
2023-02-11T15:08:38.269Z,1.10
2023-02-11T15:11:12.157Z,1.05
2023-02-11T15:13:48.032Z,1.55
2023-02-11T15:16:19.539Z,2.30
2023-02-11T15:18:53.093Z,0.88
2023-02-11T15:21:22.381Z,1.30
2023-02-11T15:23:57.085Z,1.50
2023-02-11T15:26:25.083Z,1.10
2023-02-11T15:28:53.347Z,1.25
2023-02-11T15:31:24.355Z,1.40
2023-02-11T15:33:54.283Z,1.23
2023-02-11T15:36:28.609Z,1.30
2023-02-11T15:39:31.417Z,1.05
2023-02-11T15:42:17.402Z,1.20
2023-02-11T15:44:45.439Z,1.25
2023-02-11T15:47:14.372Z,1.45
2023-02-11T15:49:46.935Z,1.38
2023-02-11T15:52:15.585Z,1.20
2023-02-11T15:54:46.670Z,1.35
2023-02-11T15:57:15.079Z,1.27
2023-02-11T15:59:47.688Z,1.20
2023-02-11T16:02:19.554Z,1.40
2023-02-11T16:04:53.524Z,1.63
2023-02-11T16:07:44.640Z,1.52
2023-02-11T16:10:21.418Z,1.65
2023-02-11T16:13:03.147Z,2.60
2023-02-11T16:15:49.689Z,2.13
2023-02-11T16:18:37.380Z,2.08
2023-02-11T16:21:12.959Z,1.83
2023-02-11T16:23:43.077Z,1.45
2023-02-11T16:26:21.216Z,2.72
2023-02-11T16:28:49.466Z,1.60
2023-02-11T16:31:17.524Z,1.60
2023-02-11T16:33:45.565Z,1.65
2023-02-11T16:36:17.265Z,1.88
2023-02-11T16:38:45.120Z,1.88
2023-02-11T16:41:12.935Z,1.60
2023-02-11T16:43:41.018Z,2.50
2023-02-11T16:46:09.424Z,2.05
2023-02-11T16:48:37.309Z,1.85
2023-02-11T16:51:05.376Z,2.30
2023-02-11T16:53:34.667Z,2.03
2023-02-11T16:56:02.494Z,1.80
2023-02-11T16:58:30.373Z,2.70
2023-02-11T17:00:58.455Z,2.05
2023-02-11T17:03:30.079Z,1.52
2023-02-11T17:05:58.500Z,2.70
2023-02-11T17:08:26.385Z,2.83
2023-02-11T17:10:55.699Z,2.42
2023-02-11T17:13:23.677Z,2.10
2023-02-11T17:15:51.880Z,1.88
2023-02-11T17:18:19.961Z,1.77
2023-02-11T17:20:48.187Z,2.38
2023-02-11T17:23:16.057Z,2.70
2023-02-11T17:25:44.001Z,2.40
2023-02-11T17:28:13.302Z,3.17
2023-02-11T17:30:43.616Z,2.15
2023-02-11T17:33:11.558Z,2.30
2023-02-11T17:35:40.986Z,2.63
2023-02-11T17:38:08.951Z,2.83
2023-02-11T17:40:36.827Z,2.15
2023-02-11T17:43:04.931Z,1.83
2023-02-11T17:45:34.267Z,1.80
2023-02-11T17:48:02.182Z,2.08
2023-02-11T17:50:30.129Z,2.15
2023-02-11T17:52:58.102Z,2.38
2023-02-11T17:55:25.999Z,3.17
2023-02-11T17:57:53.890Z,2.42
2023-02-11T18:00:23.318Z,2.03
2023-02-11T18:02:52.623Z,2.45
2023-02-11T18:05:20.549Z,2.33
2023-02-11T18:07:48.847Z,3.38
2023-02-11T18:10:16.748Z,1.58
2023-02-11T18:12:44.851Z,2.20
2023-02-11T18:15:13.282Z,2.13
2023-02-11T18:17:41.206Z,2.55
2023-02-11T18:20:11.703Z,2.17
2023-02-11T18:22:40.944Z,2.80
2023-02-11T18:25:09.883Z,1.83
2023-02-11T18:27:37.776Z,3.10
2023-02-11T18:30:07.363Z,2.08
2023-02-11T18:32:35.474Z,2.10
2023-02-11T18:35:03.646Z,2.13
2023-02-11T18:37:33.115Z,3.03
2023-02-11T18:40:01.179Z,2.83
2023-02-11T18:42:29.167Z,2.35
2023-02-11T18:44:57.168Z,2.25
2023-02-11T18:47:25.346Z,1.30
2023-02-11T18:49:53.348Z,2.10
2023-02-11T18:52:21.386Z,2.20
2023-02-11T18:54:51.944Z,1.65
2023-02-11T18:57:19.972Z,1.73
2023-02-11T18:59:50.156Z,2.65
2023-02-11T19:02:18.470Z,2.15
2023-02-11T19:04:46.500Z,2.45
2023-02-11T19:07:14.549Z,2.53
2023-02-11T19:09:42.788Z,2.08
2023-02-11T19:12:12.280Z,1.77
2023-02-11T19:14:40.269Z,2.47
2023-02-11T19:17:10.813Z,2.45
2023-02-11T19:19:38.957Z,2.15
2023-02-11T19:22:10.300Z,1.65
2023-02-11T19:24:39.165Z,2.15
2023-02-11T19:27:07.150Z,1.63
2023-02-11T19:29:36.614Z,2.08
2023-02-11T19:32:05.860Z,2.40
2023-02-11T19:34:34.165Z,1.98
2023-02-11T19:37:02.167Z,1.63
2023-02-11T19:39:30.199Z,3.08
2023-02-11T19:41:58.162Z,1.77
2023-02-11T19:44:26.118Z,2.00
2023-02-11T19:46:55.457Z,1.98
2023-02-11T19:49:25.916Z,1.95
2023-02-11T19:51:55.398Z,1.67
2023-02-11T19:54:23.469Z,1.70
2023-02-11T19:56:51.398Z,1.70
2023-02-11T19:59:19.672Z,2.70
2023-02-11T20:01:49.156Z,2.75
2023-02-11T20:04:18.903Z,1.42
2023-02-11T20:06:48.122Z,2.83
2023-02-11T20:09:16.575Z,2.13
2023-02-11T20:11:44.700Z,2.25
2023-02-11T20:14:14.828Z,2.72
2023-02-11T20:16:49.117Z,1.75
2023-02-11T20:19:21.801Z,2.30
2023-02-11T20:21:52.619Z,2.67
2023-02-11T20:24:21.341Z,2.03
2023-02-11T20:26:49.849Z,2.00
2023-02-11T20:29:18.809Z,1.70
2023-02-11T20:31:47.040Z,1.48
2023-02-11T20:34:17.541Z,2.33
2023-02-11T20:36:51.955Z,1.50
2023-02-11T20:39:22.015Z,1.83
2023-02-11T20:41:50.394Z,2.33
2023-02-11T20:44:18.873Z,2.22
2023-02-11T20:46:47.224Z,2.65
2023-02-11T20:49:16.239Z,1.65
2023-02-11T20:51:44.259Z,2.05
2023-02-11T20:54:14.578Z,1.77
2023-02-11T20:56:42.842Z,1.58
2023-02-11T20:59:11.696Z,1.17
2023-02-11T21:01:41.251Z,1.77
2023-02-11T21:04:12.657Z,2.50
2023-02-11T21:06:42.185Z,2.47
2023-02-11T21:09:12.353Z,1.27
2023-02-11T21:11:41.995Z,1.88
2023-02-11T21:14:11.127Z,2.50
2023-02-11T21:16:39.492Z,1.80
2023-02-11T21:19:08.061Z,2.10
2023-02-11T21:21:36.865Z,2.60
2023-02-11T21:24:05.318Z,2.25
2023-02-11T21:26:33.562Z,2.15
2023-02-11T21:29:02.835Z,2.20
2023-02-11T21:31:33.006Z,2.03
2023-02-11T21:34:01.295Z,2.20
2023-02-11T21:36:30.217Z,1.70
2023-02-11T21:38:58.228Z,2.20
2023-02-11T21:41:27.435Z,1.80
2023-02-11T21:43:55.445Z,2.15
2023-02-11T21:46:24.914Z,1.70
2023-02-11T21:48:53.054Z,1.98
2023-02-11T21:51:22.430Z,2.13
2023-02-11T21:53:54.442Z,2.00
2023-02-11T21:56:22.461Z,2.57
2023-02-11T21:58:54.108Z,2.60
2023-02-11T22:01:24.893Z,1.98
2023-02-11T22:03:53.693Z,1.65
2023-02-11T22:06:23.717Z,2.08
2023-02-11T22:08:51.785Z,2.00
2023-02-11T22:11:20.261Z,1.92
2023-02-11T22:13:48.372Z,2.22
2023-02-11T22:16:17.501Z,3.05
2023-02-11T22:18:46.983Z,2.60
2023-02-11T22:21:17.554Z,2.13
2023-02-11T22:23:45.666Z,1.83
2023-02-11T22:26:15.434Z,2.30
2023-02-11T22:28:43.998Z,2.33
2023-02-11T22:31:13.399Z,1.92
2023-02-11T22:33:41.881Z,2.08
2023-02-11T22:36:15.535Z,2.08
2023-02-11T22:38:43.491Z,2.00
2023-02-11T22:41:12.720Z,2.38
2023-02-11T22:43:42.435Z,2.83
2023-02-11T22:46:16.097Z,2.80
2023-02-11T22:48:44.117Z,3.03
2023-02-11T22:51:16.248Z,2.50
2023-02-11T22:53:44.703Z,2.75
2023-02-11T22:56:15.789Z,2.25
2023-02-11T22:58:43.895Z,1.98
2023-02-11T23:01:12.790Z,2.53
2023-02-11T23:03:41.133Z,2.42
2023-02-11T23:06:09.296Z,2.45
2023-02-11T23:08:39.255Z,3.10
2023-02-11T23:11:09.841Z,2.92
2023-02-11T23:13:39.283Z,2.03
2023-02-11T23:16:08.710Z,2.72
2023-02-11T23:18:37.683Z,2.92
2023-02-11T23:21:09.576Z,3.22
2023-02-11T23:23:41.021Z,3.95
2023-02-11T23:26:10.931Z,3.20
2023-02-11T23:28:38.964Z,3.05
2023-02-11T23:31:15.041Z,3.58
2023-02-11T23:33:43.159Z,3.70
2023-02-11T23:36:11.431Z,3.22
2023-02-11T23:38:40.876Z,3.40
2023-02-11T23:41:08.889Z,3.10
2023-02-11T23:43:37.040Z,3.30
2023-02-11T23:46:05.458Z,3.08
2023-02-11T23:48:33.880Z,3.42
2023-02-11T23:51:01.845Z,2.83
2023-02-11T23:53:29.899Z,2.85
2023-02-11T23:55:59.304Z,3.78
2023-02-11T23:58:27.297Z,3.80
